Time;durP1;ratioP1;P1;durP2;ratioP2;P2;SDS_P1;SDS_P2;PMS_P1;PMS_P2;Temp;Humidity;BMP_temperature;BMP_pressure;BME280_temperature;BME280_humidity;BME280_pressure;Samples;Min_cycle;Max_cycle;Signal;HPM_P1;HPM_P2
2022/07/14 00:01:13;;;;;;;16.48;3.05;;;13.30;99.90;;;;;;5124125;27;20043;-80
2022/07/14 00:03:38;;;;;;;9.00;2.30;;;13.30;99.90;;;;;;5138199;27;20043;-80
2022/07/14 00:06:04;;;;;;;12.95;2.80;;;13.20;99.90;;;;;;5156017;27;20117;-80
2022/07/14 00:08:30;;;;;;;14.10;3.30;;;13.20;99.90;;;;;;5138765;27;20081;-80
2022/07/14 00:10:56;;;;;;;8.30;1.90;;;13.20;99.90;;;;;;5135737;27;20030;-80
2022/07/14 00:13:22;;;;;;;13.80;3.83;;;13.10;99.90;;;;;;5114424;28;20051;-80
2022/07/14 00:15:47;;;;;;;10.77;1.92;;;13.10;99.90;;;;;;5115723;27;20051;-80
2022/07/14 00:18:13;;;;;;;6.55;1.80;;;13.10;99.90;;;;;;5135628;27;20043;-80
2022/07/14 00:20:39;;;;;;;14.05;2.83;;;13.10;99.90;;;;;;5135356;27;20035;-80
2022/07/14 00:23:05;;;;;;;13.45;2.85;;;13.10;99.90;;;;;;5117475;27;20040;-80
2022/07/14 00:25:31;;;;;;;14.02;2.97;;;13.00;99.90;;;;;;5115118;28;20036;-80
2022/07/14 00:27:57;;;;;;;16.63;3.15;;;12.90;99.90;;;;;;5132464;27;20058;-80
2022/07/14 00:30:22;;;;;;;11.85;2.80;;;12.90;99.90;;;;;;5136252;27;20042;-80
2022/07/14 00:32:48;;;;;;;9.93;2.10;;;12.80;99.90;;;;;;5133693;27;20043;-80
2022/07/14 00:35:15;;;;;;;14.00;3.30;;;12.80;99.90;;;;;;5133890;27;20410;-80
2022/07/14 00:37:40;;;;;;;8.35;2.03;;;12.80;99.90;;;;;;5135055;27;20057;-80
2022/07/14 00:40:07;;;;;;;8.82;1.98;;;12.80;99.90;;;;;;5132249;27;20043;-80
2022/07/14 00:42:45;;;;;;;11.93;2.65;;;12.70;99.90;;;;;;5135115;27;20375;-80
2022/07/14 00:45:13;;;;;;;5.13;1.88;;;12.70;99.90;;;;;;5133617;27;20116;-79
2022/07/14 00:47:40;;;;;;;8.82;2.13;;;12.70;99.90;;;;;;5135014;27;20047;-80
2022/07/14 00:50:07;;;;;;;8.30;2.55;;;12.60;99.90;;;;;;5134845;27;20039;-80
2022/07/14 00:52:33;;;;;;;10.85;2.92;;;12.60;99.90;;;;;;5135550;27;20047;-80
2022/07/14 00:54:59;;;;;;;10.15;2.42;;;12.50;99.90;;;;;;5135292;27;20039;-80
2022/07/14 00:57:25;;;;;;;14.05;3.80;;;12.50;99.90;;;;;;5133089;27;20047;-80
2022/07/14 00:59:51;;;;;;;7.15;2.00;;;12.50;99.90;;;;;;5133743;27;20122;-80
2022/07/14 01:02:18;;;;;;;7.97;1.90;;;12.50;99.90;;;;;;5134691;27;20134;-80
2022/07/14 01:04:45;;;;;;;14.85;3.38;;;12.50;99.90;;;;;;5121824;27;20100;-80
2022/07/14 01:07:16;;;;;;;16.52;2.67;;;12.50;99.90;;;;;;5112947;28;20044;-80
2022/07/14 01:09:43;;;;;;;10.38;2.40;;;12.50;99.90;;;;;;5125153;27;20083;-80
2022/07/14 01:12:10;;;;;;;12.43;2.67;;;12.50;99.90;;;;;;5133135;27;20115;-80
2022/07/14 01:14:37;;;;;;;11.23;3.00;;;12.40;99.90;;;;;;5133151;27;20479;-80
2022/07/14 01:17:04;;;;;;;12.95;2.83;;;12.40;99.90;;;;;;5134117;27;20051;-80
2022/07/14 01:19:31;;;;;;;9.63;2.20;;;12.40;99.90;;;;;;5132383;27;20501;-80
2022/07/14 01:21:57;;;;;;;7.07;2.97;;;12.40;99.90;;;;;;5114207;28;20056;-80
2022/07/14 01:24:24;;;;;;;7.80;1.80;;;12.40;99.90;;;;;;5113461;28;20550;-80
2022/07/14 01:26:50;;;;;;;10.27;2.38;;;12.40;99.90;;;;;;5113846;28;20397;-80
2022/07/14 01:29:16;;;;;;;11.45;2.38;;;12.30;99.90;;;;;;5112102;28;20048;-80
2022/07/14 01:31:42;;;;;;;12.82;2.45;;;12.30;99.90;;;;;;5134665;27;20045;-80
2022/07/14 01:34:08;;;;;;;14.35;2.75;;;12.20;99.90;;;;;;5134182;27;20046;-80
2022/07/14 01:36:34;;;;;;;12.65;3.38;;;12.20;99.90;;;;;;5133542;27;20047;-80
2022/07/14 01:39:01;;;;;;;9.07;2.45;;;12.20;99.90;;;;;;5133980;27;20038;-80
2022/07/14 01:41:27;;;;;;;6.97;2.15;;;12.10;99.90;;;;;;5133892;27;20494;-80
2022/07/14 01:43:54;;;;;;;5.78;1.90;;;12.10;99.90;;;;;;5133980;27;20043;-80
2022/07/14 01:46:21;;;;;;;9.45;2.33;;;12.10;99.90;;;;;;5132776;27;20035;-80
2022/07/14 01:48:46;;;;;;;11.00;2.88;;;12.10;99.90;;;;;;5134990;27;20058;-80
2022/07/14 01:51:12;;;;;;;9.07;2.72;;;12.10;99.90;;;;;;5131195;27;20039;-80
2022/07/14 01:53:38;;;;;;;6.43;2.00;;;12.00;99.90;;;;;;5134974;28;20080;-80
2022/07/14 01:56:04;;;;;;;9.45;2.40;;;11.90;99.90;;;;;;5131637;28;20050;-79
2022/07/14 01:58:30;;;;;;;14.88;2.28;;;11.90;99.90;;;;;;5133564;28;20050;-80
2022/07/14 02:03:40;;;;;;;6.10;2.15;;;11.90;99.90;;;;;;5133804;28;20057;-79
2022/07/14 02:06:06;;;;;;;3.95;1.67;;;11.90;99.90;;;;;;5122862;28;20043;-79
2022/07/14 02:08:31;;;;;;;6.32;1.60;;;11.90;99.90;;;;;;5119050;28;20070;-79
2022/07/14 02:13:41;;;;;;;8.17;2.20;;;11.80;99.90;;;;;;5140553;27;20042;-79
2022/07/14 02:16:08;;;;;;;12.25;3.33;;;11.80;99.90;;;;;;5155207;27;20043;-79
2022/07/14 02:18:35;;;;;;;10.32;2.55;;;11.70;99.90;;;;;;5134601;27;20478;-79
2022/07/14 02:21:01;;;;;;;9.90;2.90;;;11.70;99.90;;;;;;5155449;27;20049;-79
2022/07/14 02:23:26;;;;;;;8.93;2.40;;;11.70;99.90;;;;;;5154123;27;20113;-79
2022/07/14 02:25:52;;;;;;;5.20;1.95;;;11.70;99.90;;;;;;5154422;27;20477;-79
2022/07/14 02:28:18;;;;;;;5.57;1.77;;;11.70;99.90;;;;;;5154297;27;20047;-79
2022/07/14 02:30:45;;;;;;;9.43;2.13;;;11.70;99.90;;;;;;5134491;28;20031;-80
2022/07/14 02:33:11;;;;;;;10.70;2.67;;;11.70;99.90;;;;;;5133727;28;20114;-79
2022/07/14 02:35:37;;;;;;;6.32;1.73;;;11.70;99.90;;;;;;5153299;27;20524;-79
2022/07/14 02:38:03;;;;;;;8.52;1.50;;;11.50;99.90;;;;;;5154919;27;20077;-79
2022/07/14 02:40:29;;;;;;;9.00;2.30;;;11.50;99.90;;;;;;5117124;28;20050;-79
2022/07/14 02:42:55;;;;;;;8.85;2.40;;;11.50;99.90;;;;;;5134075;28;20035;-80
2022/07/14 02:45:21;;;;;;;4.28;2.10;;;11.50;99.90;;;;;;5130532;27;20043;-79
2022/07/14 02:47:47;;;;;;;3.60;1.50;;;11.40;99.90;;;;;;5134145;27;20055;-79
2022/07/14 02:50:13;;;;;;;4.75;1.70;;;11.40;99.90;;;;;;5155120;27;20035;-79
2022/07/14 02:52:39;;;;;;;6.03;1.58;;;11.30;99.90;;;;;;5149184;27;20036;-79
2022/07/14 02:55:06;;;;;;;4.45;1.70;;;11.30;99.90;;;;;;5134579;28;20135;-79
2022/07/14 02:57:32;;;;;;;4.72;1.90;;;11.30;99.90;;;;;;5136327;27;20092;-79
2022/07/14 02:59:58;;;;;;;14.65;2.65;;;11.30;99.90;;;;;;5154013;27;20142;-79
2022/07/14 03:02:24;;;;;;;6.18;1.75;;;11.30;99.90;;;;;;5134709;27;20045;-79
2022/07/14 03:04:50;;;;;;;6.68;1.77;;;11.30;99.90;;;;;;5158466;27;20046;-79
2022/07/14 03:07:16;;;;;;;5.13;1.40;;;11.30;99.90;;;;;;5137562;27;20046;-79
2022/07/14 03:09:42;;;;;;;10.27;2.20;;;11.30;99.90;;;;;;5139633;27;20046;-79
2022/07/14 03:12:08;;;;;;;7.18;2.53;;;11.30;99.90;;;;;;5157272;27;20038;-79
2022/07/14 03:14:34;;;;;;;5.55;2.28;;;11.30;99.90;;;;;;5157339;27;20078;-79
2022/07/14 03:17:00;;;;;;;8.55;2.17;;;11.40;99.90;;;;;;5121940;27;20054;-79
2022/07/14 03:19:25;;;;;;;7.53;2.00;;;11.40;99.90;;;;;;5158331;27;20065;-80
2022/07/14 03:21:52;;;;;;;7.55;2.10;;;11.40;99.90;;;;;;5137607;27;20042;-80
2022/07/14 03:24:20;;;;;;;6.10;1.90;;;11.40;99.90;;;;;;5157854;27;20078;-80
2022/07/14 03:26:46;;;;;;;9.32;2.00;;;11.30;99.90;;;;;;5138725;27;20061;-79
2022/07/14 03:29:12;;;;;;;7.68;1.85;;;11.30;99.90;;;;;;5138691;27;20103;-79
2022/07/14 03:31:38;;;;;;;6.95;2.20;;;11.30;99.90;;;;;;5138605;27;20042;-79
2022/07/14 03:34:04;;;;;;;6.60;2.10;;;11.30;99.90;;;;;;5157852;27;20047;-79
2022/07/14 03:36:30;;;;;;;8.48;1.90;;;11.20;99.90;;;;;;5135440;27;20106;-80
2022/07/14 03:38:59;;;;;;;13.60;2.85;;;11.20;99.90;;;;;;5136938;27;20046;-79
2022/07/14 03:41:25;;;;;;;7.15;2.15;;;11.20;99.90;;;;;;5122507;27;20039;-79
2022/07/14 03:43:51;;;;;;;13.52;2.50;;;11.20;99.90;;;;;;5138187;27;20493;-79
2022/07/14 03:46:16;;;;;;;8.27;2.67;;;11.20;99.90;;;;;;5156337;27;20761;-79
2022/07/14 03:48:42;;;;;;;12.63;3.47;;;11.20;99.90;;;;;;5156785;27;20431;-79
2022/07/14 03:51:08;;;;;;;8.82;3.42;;;11.20;99.90;;;;;;5155820;27;20397;-79
2022/07/14 03:53:34;;;;;;;10.45;3.83;;;11.20;99.90;;;;;;5138757;27;20223;-79
2022/07/14 03:56:00;;;;;;;11.43;3.20;;;11.30;99.90;;;;;;5156304;27;20046;-80
2022/07/14 03:58:26;;;;;;;13.48;4.00;;;11.20;99.90;;;;;;5137449;27;20089;-80
2022/07/14 04:00:53;;;;;;;10.77;3.20;;;11.20;99.90;;;;;;5138758;27;20054;-80
2022/07/14 04:03:18;;;;;;;13.52;3.50;;;11.20;99.90;;;;;;5136349;27;20091;-79
2022/07/14 04:05:45;;;;;;;8.18;3.33;;;11.20;99.90;;;;;;5137122;27;20039;-80
2022/07/14 04:08:11;;;;;;;9.60;3.30;;;11.30;99.90;;;;;;5138643;27;20392;-79
2022/07/14 04:10:37;;;;;;;8.70;3.25;;;11.20;99.90;;;;;;5155257;27;20126;-80
2022/07/14 04:13:03;;;;;;;13.00;3.70;;;11.20;99.90;;;;;;5156903;27;20049;-80
2022/07/14 04:15:30;;;;;;;12.90;3.70;;;11.30;99.90;;;;;;5147231;27;20458;-79
2022/07/14 04:17:57;;;;;;;12.10;3.85;;;11.30;99.90;;;;;;5135171;27;20118;-80
2022/07/14 04:20:24;;;;;;;13.95;3.65;;;11.30;99.90;;;;;;5142446;27;20042;-80
2022/07/14 04:22:51;;;;;;;13.15;4.30;;;11.40;99.90;;;;;;5156672;27;20498;-80
2022/07/14 04:25:17;;;;;;;8.02;3.83;;;11.40;99.90;;;;;;5131689;27;20486;-79
2022/07/14 04:27:43;;;;;;;11.38;4.00;;;11.40;99.90;;;;;;5136072;27;20049;-80
2022/07/14 04:30:10;;;;;;;8.65;4.10;;;11.40;99.90;;;;;;5138852;27;20035;-80
2022/07/14 04:32:36;;;;;;;7.85;3.22;;;11.40;99.90;;;;;;5152874;27;20050;-79
2022/07/14 04:35:03;;;;;;;17.55;4.25;;;11.50;99.90;;;;;;5122334;27;20428;-79
2022/07/14 04:37:29;;;;;;;11.85;4.60;;;11.50;99.90;;;;;;5120367;27;20051;-79
2022/07/14 04:39:55;;;;;;;9.88;3.30;;;11.60;99.90;;;;;;5134968;27;20379;-80
2022/07/14 04:42:22;;;;;;;12.00;3.88;;;11.70;99.90;;;;;;5123157;27;20046;-80
2022/07/14 04:44:48;;;;;;;6.55;3.17;;;11.70;99.90;;;;;;5156383;27;20073;-79
2022/07/14 04:47:15;;;;;;;8.82;3.22;;;11.80;99.90;;;;;;5152508;27;20095;-79
2022/07/14 04:52:25;;;;;;;7.82;3.38;;;12.00;99.90;;;;;;5151175;27;20114;-79
2022/07/14 04:54:51;;;;;;;10.48;3.80;;;12.10;99.90;;;;;;5137933;27;20477;-79
2022/07/14 04:57:17;;;;;;;14.15;3.78;;;12.20;99.90;;;;;;5143134;27;20047;-80
2022/07/14 04:59:43;;;;;;;13.55;3.95;;;12.30;99.90;;;;;;5134507;27;20047;-80
2022/07/14 05:02:09;;;;;;;14.10;5.03;;;12.40;99.90;;;;;;5147754;27;20106;-80
2022/07/14 05:04:35;;;;;;;9.77;3.50;;;12.50;99.90;;;;;;5156154;27;20072;-80
2022/07/14 05:07:01;;;;;;;9.20;3.53;;;12.60;99.90;;;;;;5124393;27;20072;-82
2022/07/14 05:09:30;;;;;;;9.35;3.67;;;12.70;99.90;;;;;;5117347;27;20525;-84
2022/07/14 05:11:56;;;;;;;7.85;3.33;;;12.80;99.90;;;;;;5142613;27;20043;-83
2022/07/14 05:14:22;;;;;;;8.55;2.88;;;12.90;99.90;;;;;;5154007;27;20099;-83
2022/07/14 05:16:50;;;;;;;9.77;3.28;;;13.00;99.90;;;;;;5150240;27;20548;-81
2022/07/14 05:19:17;;;;;;;10.63;3.10;;;13.10;99.90;;;;;;5117618;27;20049;-81
2022/07/14 05:21:44;;;;;;;11.93;3.00;;;13.20;99.90;;;;;;5155061;27;20047;-81
2022/07/14 05:24:11;;;;;;;13.68;3.30;;;13.30;99.90;;;;;;5131919;27;20072;-82
2022/07/14 05:26:37;;;;;;;12.45;3.00;;;13.40;99.90;;;;;;5155762;27;20081;-82
2022/07/14 05:29:03;;;;;;;14.38;2.90;;;13.50;99.90;;;;;;5153479;27;20046;-82
2022/07/14 05:31:28;;;;;;;8.13;3.15;;;13.60;99.90;;;;;;5137252;27;20397;-82
2022/07/14 05:33:56;;;;;;;14.68;3.15;;;13.70;99.90;;;;;;5134603;27;20489;-82
2022/07/14 05:36:24;;;;;;;8.95;2.92;;;13.70;99.90;;;;;;5115765;27;20486;-82
2022/07/14 05:38:53;;;;;;;10.88;2.72;;;13.80;99.90;;;;;;5135562;27;20127;-82
2022/07/14 05:41:19;;;;;;;8.02;2.33;;;13.90;99.90;;;;;;5154737;27;20038;-82
2022/07/14 05:43:48;;;;;;;11.10;2.35;;;14.00;99.90;;;;;;5155634;27;20046;-82
2022/07/14 05:46:15;;;;;;;11.57;2.88;;;14.10;99.90;;;;;;5155204;27;20373;-83
2022/07/14 05:48:41;;;;;;;7.95;2.15;;;14.20;99.90;;;;;;5155517;27;20496;-84
2022/07/14 05:51:14;;;;;;;6.80;2.22;;;14.30;99.90;;;;;;5154664;27;20428;-84
2022/07/14 05:53:41;;;;;;;13.55;2.00;;;14.40;99.90;;;;;;5156489;27;20050;-82
2022/07/14 05:56:08;;;;;;;13.40;2.40;;;14.50;99.90;;;;;;5153587;27;20042;-84
2022/07/14 05:58:35;;;;;;;10.30;2.20;;;14.60;99.90;;;;;;5136888;27;20055;-84
2022/07/14 06:01:01;;;;;;;6.68;1.80;;;14.70;99.90;;;;;;5155006;27;20035;-83
2022/07/14 06:03:27;;;;;;;8.30;1.70;;;14.80;99.90;;;;;;5154267;27;20058;-83
2022/07/14 06:05:53;;;;;;;5.90;1.38;;;14.90;99.90;;;;;;5153886;27;20398;-83
2022/07/14 06:08:19;;;;;;;7.93;2.60;;;15.00;99.90;;;;;;5154882;27;20446;-83
2022/07/14 06:10:44;;;;;;;12.02;1.95;;;15.10;99.90;;;;;;5134371;27;20144;-83
2022/07/14 06:13:11;;;;;;;13.82;1.50;;;15.20;99.90;;;;;;5153350;27;20098;-84
2022/07/14 06:15:36;;;;;;;10.18;1.50;;;15.30;99.90;;;;;;5130941;27;20724;-83
2022/07/14 06:18:02;;;;;;;6.03;1.13;;;15.30;99.90;;;;;;5134052;27;20051;-84
2022/07/14 06:20:28;;;;;;;6.72;1.30;;;15.40;99.90;;;;;;5133754;27;20051;-83
2022/07/14 06:22:54;;;;;;;3.58;1.48;;;15.50;99.90;;;;;;5146727;27;20043;-84
2022/07/14 06:25:20;;;;;;;6.43;1.40;;;15.60;99.90;;;;;;5152574;27;20069;-84
2022/07/14 06:27:46;;;;;;;8.80;1.33;;;15.70;99.90;;;;;;5153761;27;20370;-84
2022/07/14 06:30:15;;;;;;;10.15;1.63;;;15.80;99.90;;;;;;5122998;27;20046;-84
2022/07/14 06:32:41;;;;;;;9.73;1.70;;;15.90;99.90;;;;;;5128048;27;20051;-84
2022/07/14 06:35:08;;;;;;;8.55;1.48;;;16.00;99.90;;;;;;5134458;27;20065;-84
2022/07/14 06:37:43;;;;;;;12.95;1.67;;;16.10;99.90;;;;;;5153519;27;20089;-83
2022/07/14 06:40:09;;;;;;;8.10;1.52;;;16.20;99.90;;;;;;5158916;27;20039;-84
2022/07/14 06:42:35;;;;;;;8.80;2.30;;;16.30;99.90;;;;;;5158012;27;20120;-84
2022/07/14 06:45:02;;;;;;;6.10;1.15;;;16.40;99.90;;;;;;5139436;27;20046;-84
2022/07/14 06:47:30;;;;;;;11.40;1.10;;;16.50;99.90;;;;;;5142782;27;20338;-84
2022/07/14 06:49:59;;;;;;;11.07;1.67;;;16.60;99.90;;;;;;5157980;27;20050;-84
2022/07/14 06:52:25;;;;;;;9.50;1.38;;;16.60;99.90;;;;;;5156793;27;20088;-84
2022/07/14 06:54:53;;;;;;;6.15;1.10;;;16.80;99.90;;;;;;5158677;27;20050;-84
2022/07/14 06:57:19;;;;;;;12.48;1.83;;;16.80;99.90;;;;;;5148283;27;20038;-84
2022/07/14 06:59:45;;;;;;;8.32;1.77;;;17.00;99.90;;;;;;5139045;27;20078;-84
2022/07/14 07:02:12;;;;;;;4.68;1.15;;;17.20;99.90;;;;;;5138481;27;20099;-84
2022/07/14 07:04:37;;;;;;;9.55;1.63;;;17.20;99.90;;;;;;5151320;27;20393;-84
2022/07/14 07:07:03;;;;;;;7.70;1.25;;;17.20;99.90;;;;;;5157761;27;20046;-84
2022/07/14 07:09:29;;;;;;;9.77;1.42;;;17.10;99.90;;;;;;5155457;27;20046;-84
2022/07/14 07:11:55;;;;;;;12.95;1.42;;;17.10;99.90;;;;;;5141276;27;20042;-84
2022/07/14 07:14:21;;;;;;;6.45;1.40;;;17.10;99.90;;;;;;5154689;27;20413;-84
2022/07/14 07:16:48;;;;;;;10.18;1.13;;;17.20;99.90;;;;;;5134341;27;20074;-84
2022/07/14 07:19:15;;;;;;;6.53;1.13;;;17.30;99.90;;;;;;5138548;27;20034;-85
2022/07/14 07:21:41;;;;;;;7.30;1.17;;;17.50;99.90;;;;;;5122545;27;20042;-84
2022/07/14 07:24:09;;;;;;;5.65;1.13;;;17.60;99.90;;;;;;5137401;27;20047;-83
2022/07/14 07:26:36;;;;;;;6.47;1.17;;;17.70;99.90;;;;;;5122448;27;20069;-84
2022/07/14 07:29:04;;;;;;;6.63;1.20;;;17.70;99.90;;;;;;5136049;27;20053;-84
2022/07/14 07:31:31;;;;;;;7.00;1.52;;;17.60;99.90;;;;;;5152366;27;20469;-84
2022/07/14 07:33:57;;;;;;;4.22;0.80;;;17.60;99.90;;;;;;5156506;27;20046;-83
2022/07/14 07:36:22;;;;;;;4.03;0.90;;;17.60;99.90;;;;;;5153961;27;20046;-85
2022/07/14 07:38:48;;;;;;;5.72;0.93;;;17.70;99.90;;;;;;5157578;27;20136;-84
2022/07/14 07:41:14;;;;;;;5.97;0.98;;;17.80;99.90;;;;;;5155191;27;20041;-84
2022/07/14 07:43:40;;;;;;;7.63;1.00;;;17.90;99.90;;;;;;5155196;27;20035;-84
2022/07/14 07:46:07;;;;;;;5.88;1.20;;;18.00;99.90;;;;;;5126151;27;20478;-84
2022/07/14 07:48:33;;;;;;;4.25;0.95;;;18.00;99.90;;;;;;5135716;27;20164;-85
2022/07/14 07:51:00;;;;;;;4.13;0.90;;;18.10;99.90;;;;;;5148082;27;20039;-84
2022/07/14 07:53:26;;;;;;;6.53;0.98;;;18.20;99.90;;;;;;5127944;27;20091;-83
2022/07/14 07:55:52;;;;;;;7.35;1.05;;;18.20;99.90;;;;;;5135845;27;20042;-84
2022/07/14 07:58:19;;;;;;;4.32;0.80;;;18.40;99.90;;;;;;5145325;27;20046;-84
2022/07/14 08:00:45;;;;;;;3.70;0.95;;;18.50;99.90;;;;;;5123505;27;20074;-84
2022/07/14 08:03:10;;;;;;;2.25;0.47;;;18.60;99.90;;;;;;5131040;27;20043;-84
2022/07/14 08:05:37;;;;;;;3.30;0.80;;;18.70;99.90;;;;;;5154894;27;20045;-84
2022/07/14 08:08:03;;;;;;;5.00;1.10;;;18.70;99.90;;;;;;5157325;27;20095;-83
2022/07/14 08:10:29;;;;;;;2.88;0.80;;;18.70;99.90;;;;;;5141078;27;20433;-83
2022/07/14 08:12:55;;;;;;;3.53;0.77;;;18.70;99.90;;;;;;5136248;27;20043;-84
2022/07/14 08:15:21;;;;;;;5.82;1.27;;;18.70;99.90;;;;;;5132252;27;20106;-84
2022/07/14 08:17:47;;;;;;;5.53;0.77;;;18.70;99.90;;;;;;5156024;27;20134;-84
2022/07/14 08:20:13;;;;;;;5.07;0.90;;;18.60;99.90;;;;;;5126880;27;20122;-83
2022/07/14 08:22:39;;;;;;;5.72;1.27;;;18.70;99.90;;;;;;5136128;27;20084;-84
2022/07/14 08:25:07;;;;;;;5.68;1.27;;;18.70;99.90;;;;;;5146528;27;20465;-83
2022/07/14 08:27:34;;;;;;;4.68;0.90;;;18.70;99.90;;;;;;5156305;27;20154;-83
2022/07/14 08:30:00;;;;;;;3.55;0.90;;;18.70;99.90;;;;;;5155212;27;20043;-84
2022/07/14 08:32:38;;;;;;;4.90;0.77;;;18.70;99.90;;;;;;5121360;27;20054;-85
2022/07/14 08:35:06;;;;;;;5.53;0.70;;;18.60;99.90;;;;;;5137219;27;20049;-85
2022/07/14 08:37:33;;;;;;;6.18;0.88;;;18.50;99.90;;;;;;5155935;27;20060;-84
2022/07/14 08:40:00;;;;;;;3.10;0.60;;;18.50;99.90;;;;;;5155645;27;20047;-85
2022/07/14 08:42:29;;;;;;;2.90;0.88;;;18.60;99.90;;;;;;5156375;27;20125;-84
2022/07/14 08:44:55;;;;;;;3.33;0.50;;;18.60;99.90;;;;;;5150241;27;20035;-84
2022/07/14 08:47:22;;;;;;;3.33;0.93;;;18.70;99.90;;;;;;5149242;27;20042;-83
2022/07/14 08:49:48;;;;;;;4.03;0.70;;;18.70;99.90;;;;;;5154790;27;20039;-83
2022/07/14 08:52:19;;;;;;;3.67;0.50;;;18.80;99.90;;;;;;5137139;27;20038;-84
2022/07/14 08:54:46;;;;;;;8.30;1.77;;;18.80;99.90;;;;;;5136877;27;20042;-83
2022/07/14 08:57:14;;;;;;;5.63;1.13;;;18.90;99.90;;;;;;5155975;27;20046;-85
2022/07/14 08:59:41;;;;;;;4.00;0.70;;;18.90;99.90;;;;;;5152693;27;20049;-86
2022/07/14 09:02:07;;;;;;;2.83;0.63;;;18.90;99.90;;;;;;5116990;27;20094;-83
2022/07/14 09:04:33;;;;;;;3.97;0.73;;;18.80;99.90;;;;;;5136757;27;20073;-83
2022/07/14 09:06:59;;;;;;;3.17;0.68;;;18.80;99.90;;;;;;5155336;27;20038;-84
2022/07/14 09:09:31;;;;;;;3.78;0.75;;;18.90;99.90;;;;;;5155346;27;20081;-85
2022/07/14 09:11:57;;;;;;;3.20;1.40;;;18.90;99.90;;;;;;5137742;27;20047;-85
2022/07/14 09:14:25;;;;;;;4.28;0.82;;;19.00;99.90;;;;;;5118148;27;20055;-84
2022/07/14 09:16:52;;;;;;;4.50;0.93;;;19.10;99.90;;;;;;5117972;27;20059;-84
2022/07/14 09:19:19;;;;;;;4.65;0.82;;;19.20;99.90;;;;;;5134056;27;20490;-85
2022/07/14 09:21:51;;;;;;;2.35;0.65;;;19.20;99.90;;;;;;5153681;27;20046;-84
2022/07/14 09:24:21;;;;;;;3.03;0.68;;;19.20;99.90;;;;;;5155881;27;20050;-85
2022/07/14 09:26:51;;;;;;;2.40;0.73;;;19.20;99.90;;;;;;5153312;27;20054;-84
2022/07/14 09:29:18;;;;;;;1.75;0.55;;;19.20;99.90;;;;;;5150258;27;20039;-84
2022/07/14 09:31:44;;;;;;;2.78;0.63;;;19.20;99.90;;;;;;5119862;27;20042;-86
2022/07/14 09:34:22;;;;;;;3.40;1.23;;;19.20;99.90;;;;;;5152717;27;20442;-80
2022/07/14 09:36:49;;;;;;;5.25;0.80;;;19.20;99.90;;;;;;5118563;27;20057;-84
2022/07/14 09:39:15;;;;;;;3.83;0.60;;;19.00;99.90;;;;;;5154761;27;20059;-84
2022/07/14 09:41:56;;;;;;;8.73;1.10;;;19.10;99.90;;;;;;5154492;27;20485;-84
2022/07/14 09:44:22;;;;;;;3.45;0.80;;;19.10;99.90;;;;;;5135936;27;20049;-84
2022/07/14 09:46:54;;;;;;;3.42;0.60;;;19.10;99.90;;;;;;5136810;27;20129;-84
2022/07/14 09:49:23;;;;;;;2.72;0.85;;;19.20;99.90;;;;;;5153581;27;20081;-84
2022/07/14 09:51:58;;;;;;;5.28;0.75;;;19.30;99.90;;;;;;5154528;27;20038;-84
2022/07/14 09:54:46;;;;;;;4.88;0.80;;;19.30;99.90;;;;;;5135050;27;20053;-83
2022/07/14 09:57:15;;;;;;;3.25;0.65;;;19.30;99.90;;;;;;5155160;27;20049;-83
2022/07/14 09:59:53;;;;;;;7.70;0.82;;;19.30;99.90;;;;;;5136652;27;20043;-83
2022/07/14 10:02:29;;;;;;;6.70;0.73;;;19.30;99.90;;;;;;5115602;28;20050;-83
2022/07/14 10:05:02;;;;;;;6.97;1.25;;;19.30;99.90;;;;;;5135270;27;20058;-85
2022/07/14 10:07:36;;;;;;;5.55;0.90;;;19.30;99.90;;;;;;5115728;27;20051;-83
2022/07/14 10:10:08;;;;;;;3.45;0.77;;;19.30;99.90;;;;;;5134873;27;20051;-84
2022/07/14 10:12:36;;;;;;;3.33;0.85;;;19.20;99.90;;;;;;5135880;27;20101;-84
2022/07/14 10:15:10;;;;;;;6.53;0.70;;;19.30;99.90;;;;;;5119752;27;20571;-84
2022/07/14 10:17:38;;;;;;;2.60;0.80;;;19.40;99.90;;;;;;5137730;27;20079;-85
2022/07/14 10:20:06;;;;;;;4.43;0.90;;;19.50;99.90;;;;;;5140442;27;20118;-85
2022/07/14 10:22:32;;;;;;;3.17;0.57;;;19.50;99.90;;;;;;5158355;27;20485;-84
2022/07/14 10:24:58;;;;;;;8.63;1.13;;;19.40;99.90;;;;;;5158113;27;20046;-85
2022/07/14 10:27:26;;;;;;;1.67;0.50;;;19.40;99.90;;;;;;5158489;27;20042;-85
2022/07/14 10:29:54;;;;;;;2.63;0.60;;;19.40;99.90;;;;;;5156876;27;20039;-83
2022/07/14 10:32:44;;;;;;;5.05;0.70;;;19.40;99.90;;;;;;5140938;27;20394;-84
2022/07/14 10:35:23;;;;;;;4.35;0.70;;;19.40;99.90;;;;;;5158078;27;20039;-84
2022/07/14 10:38:13;;;;;;;3.78;0.70;;;19.40;99.90;;;;;;5144883;27;20047;-84
2022/07/14 10:41:18;;;;;;;107.55;4.15;;;19.50;99.90;;;;;;5138270;27;20035;-84
2022/07/14 10:44:02;;;;;;;4.38;0.70;;;19.60;99.90;;;;;;5139786;27;20039;-84
2022/07/14 10:47:09;;;;;;;7.72;1.02;;;19.60;99.90;;;;;;5138594;27;20118;-84
2022/07/14 10:50:12;;;;;;;1.60;0.60;;;19.60;99.90;;;;;;5100921;27;20051;-84
2022/07/14 10:52:54;;;;;;;2.08;0.50;;;19.50;99.90;;;;;;5133149;27;20513;-85
2022/07/14 10:55:27;;;;;;;7.20;0.80;;;19.50;99.90;;;;;;5137640;27;20565;-83
2022/07/14 10:57:58;;;;;;;6.43;0.70;;;19.60;99.90;;;;;;5147422;27;20478;-83
2022/07/14 11:03:36;;;;;;;4.38;0.95;;;19.60;99.90;;;;;;5148983;27;20054;-83
2022/07/14 11:06:09;;;;;;;2.40;0.55;;;19.60;99.90;;;;;;5137115;27;20038;-84
2022/07/14 11:08:40;;;;;;;3.20;0.73;;;19.50;99.90;;;;;;5138707;27;20414;-83
2022/07/14 11:11:19;;;;;;;2.20;0.52;;;19.50;99.90;;;;;;5138247;27;20039;-86
2022/07/14 11:14:00;;;;;;;5.70;1.23;;;19.50;99.90;;;;;;5157146;27;20047;-84
2022/07/14 11:16:47;;;;;;;5.10;1.13;;;19.50;99.90;;;;;;5156596;27;20046;-83
2022/07/14 11:19:30;;;;;;;4.18;0.80;;;19.50;99.90;;;;;;5118010;27;20478;-84
2022/07/14 11:22:19;;;;;;;2.90;0.52;;;19.50;99.90;;;;;;5125376;27;20078;-83
2022/07/14 11:24:52;;;;;;;2.05;0.63;;;19.50;99.90;;;;;;5139084;27;20042;-82
2022/07/14 11:27:29;;;;;;;5.38;0.73;;;19.50;99.90;;;;;;5149499;27;20075;-83
2022/07/14 11:29:58;;;;;;;2.60;1.02;;;19.60;99.90;;;;;;5137223;27;20104;-83
2022/07/14 11:32:32;;;;;;;5.43;0.95;;;19.60;99.90;;;;;;5156146;27;20031;-83
2022/07/14 11:38:00;;;;;;;5.18;0.70;;;19.80;99.90;;;;;;5142035;27;20389;-84
2022/07/14 11:40:48;;;;;;;5.13;1.67;;;19.90;99.90;;;;;;5155049;27;20066;-84
2022/07/14 11:43:29;;;;;;;5.00;0.95;;;20.00;99.90;;;;;;5137940;27;20561;-83
2022/07/14 11:46:09;;;;;;;4.35;0.70;;;20.10;99.90;;;;;;5137921;27;20053;-83
2022/07/14 11:48:40;;;;;;;5.28;0.80;;;20.30;99.90;;;;;;5138177;27;20099;-82
2022/07/14 11:51:09;;;;;;;2.88;0.60;;;20.30;99.90;;;;;;5151347;27;20039;-83
2022/07/14 11:53:36;;;;;;;3.35;0.75;;;20.30;99.90;;;;;;5151722;27;20504;-84
2022/07/14 11:56:04;;;;;;;4.50;0.63;;;20.20;99.90;;;;;;5155036;27;20051;-83
2022/07/14 11:58:32;;;;;;;4.43;0.80;;;20.10;99.90;;;;;;5128687;27;20079;-84
2022/07/14 12:00:59;;;;;;;6.35;0.57;;;20.10;99.90;;;;;;5155235;27;20508;-83
2022/07/14 12:03:25;;;;;;;5.00;0.85;;;20.20;99.90;;;;;;5137981;27;20478;-84
2022/07/14 12:05:53;;;;;;;3.17;0.95;;;20.30;99.90;;;;;;5136577;27;20122;-83
2022/07/14 12:08:28;;;;;;;5.05;0.77;;;20.40;99.90;;;;;;5135605;27;20482;-83
2022/07/14 12:10:59;;;;;;;5.93;0.60;;;20.40;99.90;;;;;;5149780;27;20520;-83
2022/07/14 12:13:25;;;;;;;2.33;0.65;;;20.30;99.90;;;;;;5147535;27;20051;-85
2022/07/14 12:15:51;;;;;;;3.28;0.63;;;20.40;99.90;;;;;;5122465;27;20050;-83
2022/07/14 12:18:17;;;;;;;4.50;0.50;;;20.30;99.90;;;;;;5127669;27;20094;-84
2022/07/14 12:20:45;;;;;;;3.30;0.57;;;20.30;99.90;;;;;;5138345;27;20046;-84
2022/07/14 12:23:13;;;;;;;8.02;0.90;;;20.40;99.90;;;;;;5139824;27;20045;-83
2022/07/14 12:25:42;;;;;;;2.05;0.45;;;20.50;99.90;;;;;;5136119;27;20490;-85
2022/07/14 12:28:10;;;;;;;5.97;0.90;;;20.40;99.90;;;;;;5143237;27;20431;-84
2022/07/14 12:30:52;;;;;;;6.15;0.90;;;20.50;99.90;;;;;;5135215;27;20042;-85
2022/07/14 12:33:28;;;;;;;3.58;0.50;;;20.50;99.90;;;;;;5138751;27;20074;-85
2022/07/14 12:35:56;;;;;;;6.35;0.75;;;20.60;99.90;;;;;;5117408;27;20134;-84
2022/07/14 12:38:23;;;;;;;4.40;0.50;;;20.70;99.90;;;;;;5152917;27;20095;-87
2022/07/14 12:40:57;;;;;;;4.22;0.70;;;20.90;99.90;;;;;;5156647;27;20413;-82
2022/07/14 12:43:23;;;;;;;1.90;0.65;;;21.10;99.90;;;;;;5139816;27;20557;-82
2022/07/14 12:46:05;;;;;;;5.25;0.60;;;21.30;99.90;;;;;;5117123;27;20054;-85
2022/07/14 12:48:50;;;;;;;3.72;0.40;;;21.40;99.90;;;;;;5134250;27;20450;-83
2022/07/14 12:51:30;;;;;;;3.63;0.63;;;21.40;99.90;;;;;;5155597;27;20497;-82
2022/07/14 12:54:19;;;;;;;4.68;0.55;;;21.40;99.90;;;;;;5136949;27;20039;-83
2022/07/14 12:56:48;;;;;;;4.18;1.58;;;21.40;99.90;;;;;;5123285;27;20051;-84
2022/07/14 12:59:26;;;;;;;3.00;0.65;;;21.40;99.90;;;;;;5136956;27;20039;-83
2022/07/14 13:02:00;;;;;;;3.00;0.68;;;21.30;99.90;;;;;;5155228;27;20050;-83
2022/07/14 13:04:37;;;;;;;2.70;0.70;;;21.10;99.90;;;;;;5116247;27;20082;-83
2022/07/14 13:07:20;;;;;;;4.03;0.63;;;21.00;99.90;;;;;;5138059;27;20348;-83